Tulsa, OK (74106)

10:43 AM CDT on April 19, 2015 (GMT -0500)
Cherry Street | | Change Station
CLOSE
Current Station
Personal Weather Station
Location: Tulsa, OK
Elevation: 743 ft
Nearby Weather Stations

Elev 743 ft 36.14 °N, 95.97 °W | Updated 2 minutes ago

Mostly Cloudy
Mostly Cloudy
63.9 °F
Feels Like 63.9 °F
N
3.0
Wind Variable Wind from NNW
Gusts 4.0 mph

Today
High -- | Low -- °F
--% Chance of Precip.
Yesterday
High -- | Low -- °F
Precip. -- in
6:45 AM 8:01 PM
New Moon, 1% visible
Pressure 29.74 in
Visibility 10.0 miles
Clouds Scattered Clouds 1000 ft
Scattered Clouds 9000 ft
Mostly Cloudy 20000 ft
Dew Point 55 °F
Humidity 73%
Rainfall 0.18 in
Snow Depth Not available.
UV 2 out of 12
Pollen 9.40 out of 12
Air Quality Not available.
Flu Activity Regional
METAR KTUL 191453Z 32010KT 10SM SCT010 SCT090 BKN200 16/13 A2976 RMK AO2 SLP070 P0000 60000 T01610133 51013 $

More Conditions Fewer Conditions

Pressure 29.74 in
Visibility 10.0 miles
Clouds Scattered Clouds 1000 ft
Scattered Clouds 9000 ft
Mostly Cloudy 20000 ft
Dew Point 55 °F
Humidity 73%
Rainfall 0.18 in
Snow Depth Not available.
UV 2 out of 12
Pollen 9.40 out of 12
Air Quality Not available.
Flu Activity Regional
METAR KTUL 191453Z 32010KT 10SM SCT010 SCT090 BKN200 16/13 A2976 RMK AO2 SLP070 P0000 60000 T01610133 51013 $

More Conditions Fewer Conditions

Nowcast | as of 10:15 am CDT on April 19, 2015

At 10:10 am...National Weather Service Doppler radar showed scattered showers over northeast Oklahoma...from Craig and Nowata counties westward to Osage and parts of Pawnee counties. Other light showers were developing over central Oklahoma...east and northeast of Oklahoma City. These were all moving to the northeast around 40 mph. Through noon...showers will continue to weaken across Osage...Washington...Nowata..and Craig counties. Other scattered showers and a few thunderstorms can be expected to develop and increase...mainly west of Highway 75...and spread to the east during the early afternoon.

×

10-Day Weather Forecast

Almanac

Astronomy

Apr. 19, 2015 Rise Set
Actual Time
Civil Twilight
Nautical Twilight
Astronomical Twilight
Moon
Length of Visible Light
Length of Day
Tomorrow will be .
, % of the Moon is Illuminated

Today's Extremes

State Highs State Lows

Community

WunderPhotos

Upload Photos

1,814,838 photos uploaded!

WunderBlogs® & News

Nearby

Air Quality

  Air Quality AQ Index Pollutant
Not available.

Snow Depth

Station Depth Elevation

Earthquake Activity

City Distance Mag. Time & Date
Minimum magnitude displayed is 2.5.

Coastal Water Temperatures

Place Temperature

Stations

Nearby Weather Stations

Station Location Temp. Windchill Dew Point Humidity Wind Precip. Elev Updated Type